sensor_id;sensor_type;location;lat;lon;timestamp;temperature;humidity
23755;DHT22;12057;52.042;6.830;2022-12-31T00:01:31;12.90;99.90
23755;DHT22;12057;52.042;6.830;2022-12-31T00:06:34;12.90;99.90
23755;DHT22;12057;52.042;6.830;2022-12-31T00:11:35;12.90;99.90
23755;DHT22;12057;52.042;6.830;2022-12-31T00:16:38;12.90;99.90
23755;DHT22;12057;52.042;6.830;2022-12-31T00:21:40;12.90;99.90
23755;DHT22;12057;52.042;6.830;2022-12-31T00:26:42;12.90;99.90
23755;DHT22;12057;52.042;6.830;2022-12-31T00:31:43;12.90;99.90
23755;DHT22;12057;52.042;6.830;2022-12-31T00:36:44;12.90;99.90
23755;DHT22;12057;52.042;6.830;2022-12-31T00:41:45;12.90;99.90
23755;DHT22;12057;52.042;6.830;2022-12-31T00:46:46;12.90;99.90
23755;DHT22;12057;52.042;6.830;2022-12-31T00:51:47;12.90;99.90
23755;DHT22;12057;52.042;6.830;2022-12-31T00:56:48;13.00;99.90
23755;DHT22;12057;52.042;6.830;2022-12-31T01:01:49;13.00;99.90
23755;DHT22;12057;52.042;6.830;2022-12-31T01:06:50;12.90;99.90
23755;DHT22;12057;52.042;6.830;2022-12-31T01:11:50;12.90;99.90
23755;DHT22;12057;52.042;6.830;2022-12-31T01:16:52;13.00;99.90
23755;DHT22;12057;52.042;6.830;2022-12-31T01:21:54;13.00;99.90
23755;DHT22;12057;52.042;6.830;2022-12-31T01:26:55;13.00;99.90
23755;DHT22;12057;52.042;6.830;2022-12-31T01:31:57;13.00;99.90
23755;DHT22;12057;52.042;6.830;2022-12-31T01:36:58;13.00;99.90
23755;DHT22;12057;52.042;6.830;2022-12-31T01:41:58;13.00;99.90
23755;DHT22;12057;52.042;6.830;2022-12-31T01:47:03;13.10;99.90
23755;DHT22;12057;52.042;6.830;2022-12-31T01:57:20;13.20;99.90
23755;DHT22;12057;52.042;6.830;2022-12-31T02:02:22;13.10;99.90
23755;DHT22;12057;52.042;6.830;2022-12-31T02:07:25;13.10;99.90
23755;DHT22;12057;52.042;6.830;2022-12-31T02:12:26;13.10;99.90
23755;DHT22;12057;52.042;6.830;2022-12-31T02:33:39;12.90;99.90
23755;DHT22;12057;52.042;6.830;2022-12-31T02:38:43;12.90;99.90
23755;DHT22;12057;52.042;6.830;2022-12-31T02:43:46;12.80;99.90
23755;DHT22;12057;52.042;6.830;2022-12-31T02:49:09;12.80;99.90
23755;DHT22;12057;52.042;6.830;2022-12-31T02:54:43;12.80;99.90
23755;DHT22;12057;52.042;6.830;2022-12-31T03:00:02;12.70;99.90
23755;DHT22;12057;52.042;6.830;2022-12-31T03:05:24;12.70;99.90
23755;DHT22;12057;52.042;6.830;2022-12-31T03:10:25;12.60;99.90
23755;DHT22;12057;52.042;6.830;2022-12-31T03:15:32;12.60;99.90
23755;DHT22;12057;52.042;6.830;2022-12-31T03:25:54;12.50;99.90
23755;DHT22;12057;52.042;6.830;2022-12-31T03:31:00;12.50;99.90
23755;DHT22;12057;52.042;6.830;2022-12-31T03:36:07;12.50;99.90
23755;DHT22;12057;52.042;6.830;2022-12-31T03:41:09;12.40;99.90
23755;DHT22;12057;52.042;6.830;2022-12-31T03:46:10;12.40;99.90
23755;DHT22;12057;52.042;6.830;2022-12-31T03:51:11;12.40;99.90
23755;DHT22;12057;52.042;6.830;2022-12-31T03:56:12;12.30;99.90
23755;DHT22;12057;52.042;6.830;2022-12-31T04:01:13;12.30;99.90
23755;DHT22;12057;52.042;6.830;2022-12-31T04:06:14;12.30;99.90
23755;DHT22;12057;52.042;6.830;2022-12-31T04:11:15;12.30;99.90
23755;DHT22;12057;52.042;6.830;2022-12-31T04:16:16;12.30;99.90
23755;DHT22;12057;52.042;6.830;2022-12-31T04:21:16;12.30;99.90
23755;DHT22;12057;52.042;6.830;2022-12-31T04:26:17;12.30;99.90
23755;DHT22;12057;52.042;6.830;2022-12-31T04:31:18;12.30;99.90
23755;DHT22;12057;52.042;6.830;2022-12-31T04:36:19;12.20;99.90
23755;DHT22;12057;52.042;6.830;2022-12-31T04:41:20;12.20;99.90
23755;DHT22;12057;52.042;6.830;2022-12-31T04:46:24;12.20;99.90
23755;DHT22;12057;52.042;6.830;2022-12-31T04:51:26;12.20;99.90
23755;DHT22;12057;52.042;6.830;2022-12-31T04:56:27;12.20;99.90
23755;DHT22;12057;52.042;6.830;2022-12-31T05:01:28;12.20;99.90
23755;DHT22;12057;52.042;6.830;2022-12-31T05:06:29;12.30;99.90
23755;DHT22;12057;52.042;6.830;2022-12-31T05:11:30;12.20;99.90
23755;DHT22;12057;52.042;6.830;2022-12-31T05:16:30;12.20;99.90
23755;DHT22;12057;52.042;6.830;2022-12-31T05:21:31;12.20;99.90
23755;DHT22;12057;52.042;6.830;2022-12-31T05:26:32;12.20;99.90
23755;DHT22;12057;52.042;6.830;2022-12-31T05:31:33;12.20;99.90
23755;DHT22;12057;52.042;6.830;2022-12-31T05:36:34;12.20;99.90
23755;DHT22;12057;52.042;6.830;2022-12-31T05:41:34;12.10;99.90
23755;DHT22;12057;52.042;6.830;2022-12-31T05:46:35;12.20;99.90
23755;DHT22;12057;52.042;6.830;2022-12-31T05:51:36;12.20;99.90
23755;DHT22;12057;52.042;6.830;2022-12-31T05:56:37;12.20;99.90
23755;DHT22;12057;52.042;6.830;2022-12-31T06:01:38;12.20;99.90
23755;DHT22;12057;52.042;6.830;2022-12-31T06:06:39;12.20;99.90
23755;DHT22;12057;52.042;6.830;2022-12-31T06:11:40;12.20;99.90
23755;DHT22;12057;52.042;6.830;2022-12-31T06:16:41;12.20;99.90
23755;DHT22;12057;52.042;6.830;2022-12-31T06:21:42;12.20;99.90
23755;DHT22;12057;52.042;6.830;2022-12-31T06:26:43;12.30;99.90
23755;DHT22;12057;52.042;6.830;2022-12-31T06:31:44;12.20;99.90
23755;DHT22;12057;52.042;6.830;2022-12-31T06:36:47;12.30;99.90
23755;DHT22;12057;52.042;6.830;2022-12-31T06:41:48;12.30;99.90
23755;DHT22;12057;52.042;6.830;2022-12-31T06:46:50;12.30;99.90
23755;DHT22;12057;52.042;6.830;2022-12-31T06:51:50;12.30;99.90
23755;DHT22;12057;52.042;6.830;2022-12-31T06:56:51;12.30;99.90
23755;DHT22;12057;52.042;6.830;2022-12-31T07:07:46;12.40;99.90
23755;DHT22;12057;52.042;6.830;2022-12-31T07:23:33;12.70;99.90
23755;DHT22;12057;52.042;6.830;2022-12-31T07:28:47;12.70;99.90
23755;DHT22;12057;52.042;6.830;2022-12-31T07:33:54;12.80;99.90
23755;DHT22;12057;52.042;6.830;2022-12-31T07:45:19;13.20;99.90
23755;DHT22;12057;52.042;6.830;2022-12-31T07:50:20;13.30;99.90
23755;DHT22;12057;52.042;6.830;2022-12-31T07:55:21;13.40;99.90
23755;DHT22;12057;52.042;6.830;2022-12-31T08:00:22;13.50;99.90
23755;DHT22;12057;52.042;6.830;2022-12-31T08:05:32;13.60;99.90
23755;DHT22;12057;52.042;6.830;2022-12-31T08:16:14;13.70;99.90
23755;DHT22;12057;52.042;6.830;2022-12-31T08:37:03;13.90;99.90
23755;DHT22;12057;52.042;6.830;2022-12-31T08:42:20;13.90;99.90
23755;DHT22;12057;52.042;6.830;2022-12-31T08:48:02;14.00;99.90
23755;DHT22;12057;52.042;6.830;2022-12-31T08:53:04;14.10;99.90
23755;DHT22;12057;52.042;6.830;2022-12-31T09:19:20;13.80;99.90
23755;DHT22;12057;52.042;6.830;2022-12-31T09:24:21;13.70;99.90
23755;DHT22;12057;52.042;6.830;2022-12-31T09:34:49;13.50;99.90
23755;DHT22;12057;52.042;6.830;2022-12-31T09:39:55;13.50;99.90
23755;DHT22;12057;52.042;6.830;2022-12-31T09:51:28;13.50;99.90
23755;DHT22;12057;52.042;6.830;2022-12-31T09:56:25;13.50;99.90
23755;DHT22;12057;52.042;6.830;2022-12-31T10:01:49;13.60;99.90
23755;DHT22;12057;52.042;6.830;2022-12-31T10:18:16;13.90;99.90
23755;DHT22;12057;52.042;6.830;2022-12-31T10:28:55;14.30;99.90
23755;DHT22;12057;52.042;6.830;2022-12-31T11:01:19;14.70;99.90
23755;DHT22;12057;52.042;6.830;2022-12-31T11:11:54;14.70;99.90
23755;DHT22;12057;52.042;6.830;2022-12-31T11:17:14;14.70;99.90
23755;DHT22;12057;52.042;6.830;2022-12-31T11:28:03;14.80;99.90
23755;DHT22;12057;52.042;6.830;2022-12-31T11:38:29;14.80;99.90
23755;DHT22;12057;52.042;6.830;2022-12-31T11:43:37;14.80;99.90
23755;DHT22;12057;52.042;6.830;2022-12-31T11:59:37;15.00;99.90
23755;DHT22;12057;52.042;6.830;2022-12-31T12:04:38;15.20;99.90
23755;DHT22;12057;52.042;6.830;2022-12-31T12:09:39;15.10;99.90
23755;DHT22;12057;52.042;6.830;2022-12-31T12:14:42;15.20;99.90
23755;DHT22;12057;52.042;6.830;2022-12-31T12:19:46;15.20;99.90
23755;DHT22;12057;52.042;6.830;2022-12-31T12:24:55;15.30;99.90
23755;DHT22;12057;52.042;6.830;2022-12-31T12:29:56;15.40;99.90
23755;DHT22;12057;52.042;6.830;2022-12-31T12:34:57;15.50;99.90
23755;DHT22;12057;52.042;6.830;2022-12-31T12:45:05;15.50;99.90
23755;DHT22;12057;52.042;6.830;2022-12-31T12:50:13;15.40;99.90
23755;DHT22;12057;52.042;6.830;2022-12-31T12:55:19;15.40;99.90
23755;DHT22;12057;52.042;6.830;2022-12-31T13:00:23;15.40;99.90
23755;DHT22;12057;52.042;6.830;2022-12-31T13:27:03;15.10;99.90
23755;DHT22;12057;52.042;6.830;2022-12-31T13:32:07;15.00;99.90
23755;DHT22;12057;52.042;6.830;2022-12-31T13:37:29;15.00;99.90
23755;DHT22;12057;52.042;6.830;2022-12-31T13:43:04;15.00;99.90
23755;DHT22;12057;52.042;6.830;2022-12-31T13:48:12;15.00;99.90
23755;DHT22;12057;52.042;6.830;2022-12-31T13:53:20;15.10;99.90
23755;DHT22;12057;52.042;6.830;2022-12-31T13:58:35;15.00;99.90
23755;DHT22;12057;52.042;6.830;2022-12-31T14:04:27;15.00;99.90
23755;DHT22;12057;52.042;6.830;2022-12-31T14:09:04;15.10;99.90
23755;DHT22;12057;52.042;6.830;2022-12-31T14:14:32;15.10;99.90
23755;DHT22;12057;52.042;6.830;2022-12-31T14:24:47;15.10;99.90
23755;DHT22;12057;52.042;6.830;2022-12-31T14:40:44;15.10;99.90
23755;DHT22;12057;52.042;6.830;2022-12-31T14:46:17;15.00;99.90
23755;DHT22;12057;52.042;6.830;2022-12-31T14:51:20;15.00;99.90
23755;DHT22;12057;52.042;6.830;2022-12-31T15:01:43;15.00;99.90
23755;DHT22;12057;52.042;6.830;2022-12-31T15:06:53;15.10;99.90
23755;DHT22;12057;52.042;6.830;2022-12-31T15:17:53;15.00;99.90
23755;DHT22;12057;52.042;6.830;2022-12-31T15:22:58;15.00;99.90
23755;DHT22;12057;52.042;6.830;2022-12-31T15:28:02;15.00;99.90
23755;DHT22;12057;52.042;6.830;2022-12-31T15:33:21;14.90;99.90
23755;DHT22;12057;52.042;6.830;2022-12-31T15:38:31;14.90;99.90
23755;DHT22;12057;52.042;6.830;2022-12-31T15:48:50;15.00;99.90
23755;DHT22;12057;52.042;6.830;2022-12-31T15:53:57;15.00;99.90
23755;DHT22;12057;52.042;6.830;2022-12-31T15:59:02;15.00;99.90
23755;DHT22;12057;52.042;6.830;2022-12-31T16:04:11;15.00;99.90
23755;DHT22;12057;52.042;6.830;2022-12-31T16:09:45;15.00;99.90
23755;DHT22;12057;52.042;6.830;2022-12-31T16:14:53;15.00;99.90
23755;DHT22;12057;52.042;6.830;2022-12-31T16:19:55;15.00;99.90
23755;DHT22;12057;52.042;6.830;2022-12-31T16:24:59;15.00;99.90
23755;DHT22;12057;52.042;6.830;2022-12-31T16:30:07;15.10;99.90
23755;DHT22;12057;52.042;6.830;2022-12-31T16:35:34;15.10;99.90
23755;DHT22;12057;52.042;6.830;2022-12-31T16:40:40;15.00;99.90
23755;DHT22;12057;52.042;6.830;2022-12-31T16:45:41;15.10;99.90
23755;DHT22;12057;52.042;6.830;2022-12-31T16:50:50;15.00;99.90
23755;DHT22;12057;52.042;6.830;2022-12-31T16:55:59;15.00;99.90
23755;DHT22;12057;52.042;6.830;2022-12-31T17:01:18;15.00;99.90
23755;DHT22;12057;52.042;6.830;2022-12-31T17:06:21;14.90;99.90
23755;DHT22;12057;52.042;6.830;2022-12-31T17:11:23;14.90;99.90
23755;DHT22;12057;52.042;6.830;2022-12-31T17:16:28;14.90;99.90
23755;DHT22;12057;52.042;6.830;2022-12-31T17:21:30;14.80;99.90
23755;DHT22;12057;52.042;6.830;2022-12-31T17:26:36;14.80;99.90
23755;DHT22;12057;52.042;6.830;2022-12-31T17:31:39;14.70;99.90
23755;DHT22;12057;52.042;6.830;2022-12-31T17:36:51;14.70;99.90
23755;DHT22;12057;52.042;6.830;2022-12-31T17:41:55;14.60;99.90
23755;DHT22;12057;52.042;6.830;2022-12-31T17:46:57;14.70;99.90
23755;DHT22;12057;52.042;6.830;2022-12-31T17:51:57;14.70;99.90
23755;DHT22;12057;52.042;6.830;2022-12-31T17:56:58;14.70;99.90
23755;DHT22;12057;52.042;6.830;2022-12-31T18:02:01;14.70;99.90
23755;DHT22;12057;52.042;6.830;2022-12-31T18:07:02;14.70;99.90
23755;DHT22;12057;52.042;6.830;2022-12-31T18:12:04;14.70;99.90
23755;DHT22;12057;52.042;6.830;2022-12-31T18:17:14;14.70;99.90
23755;DHT22;12057;52.042;6.830;2022-12-31T18:22:16;14.80;99.90
23755;DHT22;12057;52.042;6.830;2022-12-31T18:27:18;14.80;99.90
23755;DHT22;12057;52.042;6.830;2022-12-31T18:32:29;14.80;99.90
23755;DHT22;12057;52.042;6.830;2022-12-31T18:37:35;14.70;99.90
23755;DHT22;12057;52.042;6.830;2022-12-31T18:42:36;14.70;99.90
23755;DHT22;12057;52.042;6.830;2022-12-31T18:47:37;14.80;99.90
23755;DHT22;12057;52.042;6.830;2022-12-31T18:52:37;14.80;99.90
23755;DHT22;12057;52.042;6.830;2022-12-31T18:57:38;14.80;99.90
23755;DHT22;12057;52.042;6.830;2022-12-31T19:02:39;14.90;99.90
23755;DHT22;12057;52.042;6.830;2022-12-31T19:07:41;14.80;99.90
23755;DHT22;12057;52.042;6.830;2022-12-31T19:12:43;14.80;99.90
23755;DHT22;12057;52.042;6.830;2022-12-31T19:17:44;14.80;99.90
23755;DHT22;12057;52.042;6.830;2022-12-31T19:22:44;14.90;99.90
23755;DHT22;12057;52.042;6.830;2022-12-31T19:27:45;14.80;99.90
23755;DHT22;12057;52.042;6.830;2022-12-31T19:32:46;14.70;99.90
23755;DHT22;12057;52.042;6.830;2022-12-31T19:37:48;14.80;99.90
23755;DHT22;12057;52.042;6.830;2022-12-31T19:42:51;14.80;99.90
23755;DHT22;12057;52.042;6.830;2022-12-31T19:47:54;14.70;99.90
23755;DHT22;12057;52.042;6.830;2022-12-31T19:52:56;14.70;99.90
23755;DHT22;12057;52.042;6.830;2022-12-31T19:57:57;14.80;99.90
23755;DHT22;12057;52.042;6.830;2022-12-31T20:02:58;14.80;99.90
23755;DHT22;12057;52.042;6.830;2022-12-31T20:07:59;15.00;99.90
23755;DHT22;12057;52.042;6.830;2022-12-31T20:13:00;14.80;99.90
23755;DHT22;12057;52.042;6.830;2022-12-31T20:18:00;14.90;99.90
23755;DHT22;12057;52.042;6.830;2022-12-31T20:23:01;15.00;99.90
23755;DHT22;12057;52.042;6.830;2022-12-31T20:28:02;15.10;99.90
23755;DHT22;12057;52.042;6.830;2022-12-31T20:33:03;15.10;99.90
23755;DHT22;12057;52.042;6.830;2022-12-31T20:38:04;14.90;99.90
23755;DHT22;12057;52.042;6.830;2022-12-31T20:43:04;14.90;99.90
23755;DHT22;12057;52.042;6.830;2022-12-31T20:48:05;14.90;99.90
23755;DHT22;12057;52.042;6.830;2022-12-31T20:53:06;15.00;99.90
23755;DHT22;12057;52.042;6.830;2022-12-31T20:58:07;14.90;99.90
23755;DHT22;12057;52.042;6.830;2022-12-31T21:03:08;14.90;99.90
23755;DHT22;12057;52.042;6.830;2022-12-31T21:08:08;14.80;99.90
23755;DHT22;12057;52.042;6.830;2022-12-31T21:13:09;14.90;99.90
23755;DHT22;12057;52.042;6.830;2022-12-31T21:18:10;14.80;99.90
23755;DHT22;12057;52.042;6.830;2022-12-31T21:23:11;14.90;99.90
23755;DHT22;12057;52.042;6.830;2022-12-31T21:28:12;14.80;99.90
23755;DHT22;12057;52.042;6.830;2022-12-31T21:33:12;14.80;99.90
23755;DHT22;12057;52.042;6.830;2022-12-31T21:38:13;14.80;99.90
23755;DHT22;12057;52.042;6.830;2022-12-31T21:43:15;14.70;99.90
23755;DHT22;12057;52.042;6.830;2022-12-31T21:48:15;14.70;99.90
23755;DHT22;12057;52.042;6.830;2022-12-31T21:53:22;14.80;99.90
23755;DHT22;12057;52.042;6.830;2022-12-31T21:58:24;14.80;99.90
23755;DHT22;12057;52.042;6.830;2022-12-31T22:03:24;14.80;99.90
23755;DHT22;12057;52.042;6.830;2022-12-31T22:08:28;14.80;99.90
23755;DHT22;12057;52.042;6.830;2022-12-31T22:13:29;14.80;99.90
23755;DHT22;12057;52.042;6.830;2022-12-31T22:18:30;14.90;99.90
23755;DHT22;12057;52.042;6.830;2022-12-31T22:23:34;14.90;99.90
23755;DHT22;12057;52.042;6.830;2022-12-31T22:28:38;15.10;99.90
23755;DHT22;12057;52.042;6.830;2022-12-31T22:33:39;15.10;99.90
23755;DHT22;12057;52.042;6.830;2022-12-31T22:38:40;15.20;99.90
23755;DHT22;12057;52.042;6.830;2022-12-31T22:43:43;15.30;99.90
23755;DHT22;12057;52.042;6.830;2022-12-31T22:48:44;15.30;99.90
23755;DHT22;12057;52.042;6.830;2022-12-31T22:53:46;15.20;99.90
23755;DHT22;12057;52.042;6.830;2022-12-31T22:58:47;15.30;99.90
23755;DHT22;12057;52.042;6.830;2022-12-31T23:03:51;15.20;99.90
23755;DHT22;12057;52.042;6.830;2022-12-31T23:08:52;15.20;99.90
23755;DHT22;12057;52.042;6.830;2022-12-31T23:14:15;15.20;99.90
23755;DHT22;12057;52.042;6.830;2022-12-31T23:19:34;15.30;99.90
23755;DHT22;12057;52.042;6.830;2022-12-31T23:24:53;15.40;99.90
23755;DHT22;12057;52.042;6.830;2022-12-31T23:29:54;15.30;99.90
23755;DHT22;12057;52.042;6.830;2022-12-31T23:34:55;15.40;99.90
23755;DHT22;12057;52.042;6.830;2022-12-31T23:39:56;15.40;99.90
23755;DHT22;12057;52.042;6.830;2022-12-31T23:44:57;15.30;99.90
23755;DHT22;12057;52.042;6.830;2022-12-31T23:49:58;15.40;99.90
23755;DHT22;12057;52.042;6.830;2022-12-31T23:54:59;15.50;99.90
23755;DHT22;12057;52.042;6.830;2022-12-31T23:59:59;15.50;99.90
